Hauptseite
METAR-TAF:

METAR-TAF

Flughäfen :

Flughafen Bolschoje Sawino

Perm, Russland

Breite: 58-00N, Länge: 056-15E, Höhe: 170 m

Beobachtung

Neuester Wetterbericht von vor 31 Minuten, um 14:00 UTC
Wind 16 kt aus Süd/Südwest
Temperatur -6°C
Luftfeuchtigkeit 79%
Luftdruck 1014 hPa
Sichtweite 10 km oder mehr
Durchbrochene Bewölkung in der Höhe von 1600 ft, Kumulonimbus.
Schneeschauer

METAR: USPP 201400Z 21008MPS 9999 -SHSN BKN016CB M06/M09 Q1014 R21/490345 NOSIG RMK QFE750

Zeit: 19:31 (14:31 UTC)

Prognose

Neuester Wetterbericht von vor 3 Stunden und 36 Minuten, um 10:55 UTC
Gültige Prognose vom 20 um 12 UTC bis 21 um 12 UTC
Wind 12 kt aus Süd/Südwest, Böen bis zu 29 kt
Sichtweite: 6000 m
Durchbrochene Bewölkung in der Höhe von 1600 ft
Schnee leicht
Zeitweise
vom 20 um 12 UTC bis 20 um 15 UTC
Durchbrochene Bewölkung in der Höhe von 1100 ft

TAF: USPP 201055Z 2012/2112 21006G15MPS 6000 -SN BKN016 TEMPO 2012/2015 BKN011

Wetterbeobachtungen und Prognosen von mehr als 4000 Flughäfen (METAR und TAF Bericht).

Die verfügbaren Stationen werden durch gelbe und rote Markierungen auf der Karte dargestellt.

Führen Sie die Maus auf sie, um den Namen der Station zu sehen.

Darauf klicken, um die Beobachtung von Wetterbeobachtungen und Prognosen zu sehen.

Um die Karte zu ändern : klicken Sie auf den grünen Tasten mit einem schwarzen Kreuz Zum Vergrößern, auf den grünen Button mit einem Gedankenstrich zu verkleinern, oder auf die grünen Pfeile für benachbarte Karten.


METAR-TAF: